Time;durP1;ratioP1;P1;durP2;ratioP2;P2;SDS_P1;SDS_P2;PMS_P1;PMS_P2;Temp;Humidity;BMP_temperature;BMP_pressure;BME280_temperature;BME280_humidity;BME280_pressure;Samples;Min_cycle;Max_cycle;Signal;HPM_P1;HPM_P2
2023/04/14 00:00:02;;;;;;;3.67;2.20;;;7.70;72.20;;;10.88;47.08;96813.22;5062071;28;20045;-44
2023/04/14 00:02:38;;;;;;;4.37;1.80;;;7.70;71.90;;;10.79;47.41;96799.16;5057160;28;20426;-44
2023/04/14 00:05:07;;;;;;;5.23;1.87;;;7.50;71.40;;;10.74;47.01;96812.22;5061742;28;20063;-45
2023/04/14 00:07:35;;;;;;;6.97;2.10;;;7.40;71.50;;;10.67;47.02;96807.81;5063965;28;20048;-45
2023/04/14 00:10:03;;;;;;;3.63;1.80;;;7.40;71.20;;;10.58;46.89;96805.19;5065319;28;20049;-44
2023/04/14 00:12:30;;;;;;;3.80;1.80;;;7.40;71.20;;;10.44;47.53;96798.03;5061815;28;20053;-46
2023/04/14 00:14:58;;;;;;;5.53;2.13;;;7.20;71.70;;;10.28;47.67;96793.66;5061285;28;20048;-44
2023/04/14 00:17:25;;;;;;;3.43;2.00;;;7.10;72.70;;;10.19;48.03;96787.56;5064476;28;20060;-45
2023/04/14 00:19:53;;;;;;;4.87;1.90;;;7.00;73.40;;;10.13;47.95;96787.47;5065107;28;20041;-45
2023/04/14 00:22:21;;;;;;;4.67;2.33;;;6.90;74.20;;;10.02;48.58;96786.91;5061657;28;20509;-43
2023/04/14 00:24:49;;;;;;;7.57;2.10;;;6.80;75.40;;;10.04;48.61;96790.22;5061219;28;20053;-47
2023/04/14 00:27:17;;;;;;;6.23;2.60;;;6.70;76.10;;;10.02;48.66;96788.72;5061606;28;20048;-44
2023/04/14 00:29:44;;;;;;;5.30;2.00;;;6.70;76.20;;;9.97;48.75;96791.09;5062845;28;20051;-45
2023/04/14 00:32:12;;;;;;;6.53;2.57;;;6.70;76.60;;;9.94;48.79;96789.59;5064528;28;20502;-45
2023/04/14 00:34:39;;;;;;;4.77;1.90;;;6.60;76.50;;;9.96;48.86;96802.72;5059207;28;20056;-46
2023/04/14 00:37:07;;;;;;;5.93;2.80;;;6.70;76.40;;;9.94;48.49;96802.09;5061133;28;20051;-46
2023/04/14 00:39:35;;;;;;;4.23;2.13;;;6.60;76.00;;;9.84;48.47;96799.66;5064971;28;20044;-46
2023/04/14 00:42:03;;;;;;;2.83;1.73;;;6.60;75.10;;;9.84;48.54;96799.66;5063014;28;20055;-47
2023/04/14 00:44:31;;;;;;;3.57;1.90;;;6.60;74.80;;;9.87;48.13;96791.34;5059253;28;20045;-44
2023/04/14 00:47:00;;;;;;;7.10;2.13;;;6.70;74.10;;;9.78;48.30;96798.53;5059309;28;20434;-44
2023/04/14 00:49:28;;;;;;;7.53;1.93;;;6.60;72.70;;;9.66;48.22;96791.97;5062241;28;20052;-45
2023/04/14 00:51:56;;;;;;;5.63;1.90;;;6.50;72.40;;;9.65;48.14;96792.97;5064417;28;20051;-43
2023/04/14 00:54:26;;;;;;;4.00;2.07;;;6.50;72.40;;;9.62;47.85;96798.66;5060144;28;20389;-44
2023/04/14 00:56:56;;;;;;;5.83;1.83;;;6.50;72.40;;;9.64;47.98;96797.47;5039901;28;20099;-44
2023/04/14 00:59:24;;;;;;;6.80;2.37;;;6.60;72.00;;;9.69;47.62;96801.44;5060478;28;20053;-45
2023/04/14 01:01:53;;;;;;;9.23;2.67;;;6.60;71.80;;;9.72;47.79;96799.25;5046520;28;20426;-44
2023/04/14 01:04:21;;;;;;;5.53;2.00;;;6.60;71.60;;;9.71;47.79;96802.91;5060850;28;20106;-46
2023/04/14 01:06:49;;;;;;;5.80;2.30;;;6.70;71.60;;;9.71;47.46;96807.38;5059532;28;20056;-44
2023/04/14 01:09:17;;;;;;;5.73;1.70;;;6.60;71.20;;;9.69;47.44;96804.09;5060309;28;20037;-45
2023/04/14 01:12:19;;;;;;;4.13;2.23;;;6.70;71.10;;;9.71;47.36;96805.56;5063866;28;20513;-43
2023/04/14 01:15:09;;;;;;;4.40;2.07;;;6.70;70.90;;;9.81;47.43;96810.66;5052792;28;20418;-43
2023/04/14 01:17:51;;;;;;;7.50;1.67;;;6.70;70.30;;;9.79;47.35;96816.16;5052543;28;20437;-43
2023/04/14 01:20:35;;;;;;;4.37;2.10;;;6.70;70.10;;;9.72;47.27;96814.38;5061001;28;20049;-46
2023/04/14 01:23:12;;;;;;;9.43;2.73;;;6.70;69.70;;;9.73;47.32;96816.88;5062744;28;20044;-44
2023/04/14 01:26:12;;;;;;;6.80;2.10;;;6.70;70.10;;;9.61;47.60;96821.72;5052385;28;20045;-45
2023/04/14 01:29:28;;;;;;;6.03;2.40;;;6.60;70.20;;;9.63;47.39;96822.41;5051422;28;20056;-43
2023/04/14 01:32:09;;;;;;;7.23;1.70;;;6.60;70.00;;;9.34;47.78;96825.69;5046211;28;20072;-44
2023/04/14 01:34:52;;;;;;;9.47;2.77;;;6.50;70.40;;;9.52;47.28;96825.44;5050862;28;20048;-44
2023/04/14 01:37:46;;;;;;;10.45;2.55;;;6.50;70.70;;;9.48;47.41;96828.63;5042042;28;20049;-45
2023/04/14 01:40:17;;;;;;;6.73;2.80;;;6.50;70.70;;;9.46;47.52;96826.16;5029252;28;20049;-46
2023/04/14 01:43:03;;;;;;;2.97;2.07;;;6.50;70.90;;;9.46;47.38;96826.97;5058502;28;20060;-44
2023/04/14 01:45:50;;;;;;;3.73;2.13;;;6.40;70.50;;;9.23;47.45;96834.06;5061324;28;20056;-45
2023/04/14 01:48:18;;;;;;;6.17;2.47;;;6.40;70.20;;;9.40;47.28;96835.66;5061136;28;20045;-45
2023/04/14 01:50:47;;;;;;;6.30;2.40;;;6.40;70.60;;;9.48;47.50;96831.28;5038950;28;20448;-44
2023/04/14 01:53:17;;;;;;;4.83;2.30;;;6.40;70.50;;;9.53;47.16;96831.59;5055320;28;20060;-45
2023/04/14 01:55:47;;;;;;;4.93;2.00;;;6.50;70.10;;;9.56;47.17;96833.91;5044667;28;20044;-45
2023/04/14 01:58:18;;;;;;;11.83;2.43;;;6.50;69.90;;;9.57;46.92;96835.56;5061519;28;20037;-45
2023/04/14 02:00:46;;;;;;;7.90;2.27;;;6.50;69.70;;;9.60;46.92;96830.72;5033377;28;20518;-43
2023/04/14 02:03:20;;;;;;;4.03;1.70;;;6.50;69.60;;;9.62;46.74;96830.56;5055274;28;20407;-43
2023/04/14 02:05:50;;;;;;;;;;;6.60;69.60;;;9.62;46.70;96835.88;5062176;28;20044;-45
2023/04/14 02:08:19;;;;;;;5.73;1.80;;;6.50;68.90;;;9.61;47.00;96836.84;5061974;28;19934;-45
2023/04/14 02:10:51;;;;;;;7.10;2.20;;;6.60;69.40;;;9.65;46.91;96835.50;5038271;28;20053;-43
2023/04/14 02:13:20;;;;;;;8.03;2.33;;;6.60;68.80;;;9.71;46.59;96845.41;5056447;28;20418;-43
2023/04/14 02:15:50;;;;;;;3.70;1.63;;;6.70;68.50;;;9.73;46.73;96842.59;5061119;28;20055;-47
2023/04/14 02:18:21;;;;;;;6.80;1.90;;;6.70;68.70;;;9.69;46.50;96841.28;5060280;28;20048;-44
2023/04/14 02:20:51;;;;;;;6.00;2.37;;;6.60;68.70;;;9.74;46.56;96844.25;5040869;28;20049;-44
2023/04/14 02:23:19;;;;;;;5.67;2.30;;;6.60;68.80;;;9.70;46.51;96851.75;5050682;28;20425;-44
2023/04/14 02:26:03;;;;;;;6.93;1.97;;;6.60;68.70;;;9.73;46.77;96840.78;5062375;28;20047;-44
2023/04/14 02:28:33;;;;;;;;;;;6.60;68.60;;;9.79;46.62;96847.19;5059575;28;20280;-44
2023/04/14 02:31:07;;;;;;;4.67;2.13;;;6.60;68.20;;;9.83;46.32;96844.03;5059229;28;19921;-45
2023/04/14 02:33:38;;;;;;;2.60;1.70;;;6.60;68.80;;;9.82;46.50;96853.00;5061234;28;20040;-44
2023/04/14 02:36:19;;;;;;;5.93;2.70;;;6.70;68.60;;;9.80;46.52;96846.22;5062343;28;20036;-46
2023/04/14 02:38:59;;;;;;;8.47;2.00;;;6.70;69.60;;;9.82;46.58;96847.69;5051024;28;20224;-44
2023/04/14 02:41:31;;;;;;;4.33;1.87;;;6.70;68.80;;;9.88;46.43;96850.66;5059232;28;20049;-43
2023/04/14 02:44:23;;;;;;;5.77;1.90;;;6.80;68.70;;;9.92;46.56;96849.28;5060856;28;20048;-44
2023/04/14 02:47:06;;;;;;;6.00;3.63;;;6.80;68.50;;;9.95;46.61;96854.28;5032156;28;20061;-44
2023/04/14 02:49:42;;;;;;;7.03;2.17;;;6.80;69.20;;;9.96;46.63;96859.38;5045348;28;20421;-43
2023/04/14 02:52:14;;;;;;;5.33;2.37;;;6.80;69.70;;;9.94;47.08;96857.91;5044890;28;20060;-43
2023/04/14 02:54:45;;;;;;;5.30;2.35;;;6.80;70.20;;;9.90;46.94;96862.75;5048855;28;20048;-43
2023/04/14 02:57:14;;;;;;;5.63;2.83;;;6.70;70.80;;;9.84;47.00;96864.28;5041220;28;20060;-44
2023/04/14 02:59:46;;;;;;;5.30;2.93;;;6.60;70.80;;;9.80;47.06;96865.63;5050251;28;20045;-43
2023/04/14 03:02:16;;;;;;;14.23;7.03;;;6.60;71.50;;;9.77;46.88;96870.47;5054214;28;20041;-44
2023/04/14 03:04:50;;;;;;;8.60;3.80;;;6.60;71.60;;;9.72;47.23;96879.00;5043946;28;20049;-43
2023/04/14 03:07:28;;;;;;;5.60;3.37;;;6.50;71.70;;;9.66;47.20;96869.06;5058964;28;20052;-44
2023/04/14 03:09:56;;;;;;;8.03;3.63;;;6.40;72.00;;;9.65;47.59;96870.03;5059004;28;20045;-45
2023/04/14 03:12:26;;;;;;;6.60;4.67;;;6.40;72.10;;;9.62;47.43;96868.56;5050360;28;20051;-44
2023/04/14 03:14:56;;;;;;;9.80;3.97;;;6.40;72.60;;;9.55;47.37;96866.78;5062114;28;20041;-44
2023/04/14 03:17:26;;;;;;;8.83;4.47;;;6.30;72.50;;;9.50;47.52;96867.31;5042735;28;20064;-43
2023/04/14 03:19:55;;;;;;;6.80;5.00;;;6.20;72.80;;;9.45;47.57;96867.81;5057203;28;20048;-43
2023/04/14 03:22:27;;;;;;;8.70;3.93;;;6.20;73.00;;;9.39;47.52;96865.03;5057874;28;20416;-43
2023/04/14 03:24:57;;;;;;;6.70;3.63;;;6.10;73.60;;;9.30;47.79;96861.56;5044428;28;20040;-43
2023/04/14 03:27:30;;;;;;;5.80;3.37;;;6.00;73.90;;;9.24;47.64;96867.56;5059068;28;20055;-44
2023/04/14 03:30:05;;;;;;;9.07;3.90;;;5.90;74.40;;;9.19;47.85;96856.63;5038767;28;20048;-45
2023/04/14 03:32:40;;;;;;;8.87;3.23;;;5.90;74.20;;;9.09;48.23;96862.13;5059715;28;20506;-45
2023/04/14 03:35:13;;;;;;;3.90;2.53;;;5.80;74.60;;;8.99;48.04;96865.00;5060492;28;20059;-43
2023/04/14 03:37:43;;;;;;;7.07;2.47;;;5.70;75.00;;;8.93;48.17;96870.16;5038300;28;20045;-43
2023/04/14 03:40:13;;;;;;;4.17;1.80;;;5.60;75.00;;;8.85;48.00;96866.53;5052858;28;20057;-46
2023/04/14 03:42:44;;;;;;;5.63;2.87;;;5.50;75.20;;;8.82;48.05;96868.69;5040764;28;20041;-44
2023/04/14 03:45:17;;;;;;;7.23;2.67;;;5.50;75.00;;;8.79;48.49;96858.41;5037728;28;20042;-44
2023/04/14 03:47:45;;;;;;;4.07;1.93;;;5.50;75.00;;;8.77;48.42;96863.88;5049387;28;20049;-44
2023/04/14 03:50:15;;;;;;;10.67;2.50;;;5.50;74.70;;;8.77;48.33;96855.09;5038900;28;20052;-44
2023/04/14 03:52:48;;;;;;;6.63;2.40;;;5.50;74.70;;;8.76;48.06;96858.75;5064326;28;20041;-45
2023/04/14 03:55:18;;;;;;;8.48;3.67;;;5.50;74.10;;;8.72;47.94;96855.59;5047256;28;20037;-45
2023/04/14 03:57:49;;;;;;;4.63;2.57;;;5.40;74.70;;;8.65;47.91;96858.09;5049511;28;20045;-44
2023/04/14 04:00:18;;;;;;;8.87;2.37;;;5.30;75.10;;;8.61;48.33;96861.28;5037057;28;20423;-43
2023/04/14 04:02:48;;;;;;;6.13;2.70;;;5.30;75.30;;;8.62;48.36;96860.25;5053479;28;20398;-45
2023/04/14 04:05:17;;;;;;;4.87;2.70;;;5.30;75.30;;;8.61;48.66;96855.97;5039810;28;20063;-42
2023/04/14 04:07:45;;;;;;;5.87;3.13;;;5.30;75.40;;;8.55;48.41;96865.44;5052783;28;20055;-44
2023/04/14 04:10:15;;;;;;;7.10;2.70;;;5.30;76.10;;;8.54;48.60;96868.25;5040816;28;20053;-44
2023/04/14 04:12:45;;;;;;;4.97;2.30;;;5.30;76.10;;;8.49;48.68;96866.06;5063137;28;20052;-45
2023/04/14 04:15:13;;;;;;;5.13;2.67;;;5.20;76.30;;;8.45;48.76;96860.28;5046485;28;20044;-44
2023/04/14 04:17:46;;;;;;;6.77;2.27;;;5.20;76.40;;;8.44;48.91;96865.75;5044256;28;20514;-44
2023/04/14 04:20:18;;;;;;;8.00;2.83;;;5.20;76.50;;;8.42;49.22;96868.56;5041353;28;20045;-44
2023/04/14 04:22:50;;;;;;;5.83;2.63;;;5.20;76.70;;;8.44;49.06;96871.06;5032449;28;20037;-43
2023/04/14 04:25:19;;;;;;;9.20;2.50;;;5.20;76.60;;;8.42;48.82;96873.88;5036579;28;20052;-46
2023/04/14 04:27:56;;;;;;;4.20;2.23;;;5.20;76.30;;;8.44;48.78;96868.41;5060137;28;20066;-43
2023/04/14 04:30:26;;;;;;;3.90;2.60;;;5.20;76.30;;;8.40;48.79;96867.88;5065727;28;20525;-44
2023/04/14 04:32:54;;;;;;;4.43;2.37;;;5.10;75.90;;;8.34;48.77;96862.44;5047316;28;20394;-45
2023/04/14 04:35:23;;;;;;;6.50;2.70;;;5.10;76.60;;;8.28;49.26;96866.56;5062145;28;20040;-44
2023/04/14 04:37:52;;;;;;;3.93;1.77;;;5.00;76.50;;;8.26;48.89;96860.59;5059890;28;20052;-45
2023/04/14 04:40:20;;;;;;;5.90;2.20;;;5.00;76.20;;;8.22;48.99;96861.91;5040313;28;20049;-44
2023/04/14 04:42:49;;;;;;;16.30;3.20;;;5.00;76.40;;;8.17;49.00;96867.72;5015913;28;20052;-43
2023/04/14 04:45:48;;;;;;;5.23;2.47;;;5.00;75.90;;;8.19;48.97;96856.94;5062807;28;20051;-46
2023/04/14 04:48:16;;;;;;;5.33;2.17;;;5.00;76.50;;;8.24;48.63;96863.41;5042936;28;20049;-44
2023/04/14 04:50:44;;;;;;;4.27;2.43;;;5.10;75.40;;;8.19;48.82;96864.91;5063674;28;20047;-44
2023/04/14 04:53:12;;;;;;;4.27;1.93;;;5.00;75.30;;;8.18;48.57;96860.56;5064179;28;20505;-45
2023/04/14 04:55:41;;;;;;;5.43;2.20;;;5.00;75.00;;;8.16;49.01;96863.41;5059667;28;20510;-44
2023/04/14 04:58:09;;;;;;;5.53;1.83;;;5.00;74.90;;;8.09;49.06;96862.41;5060998;28;20402;-46
2023/04/14 05:00:36;;;;;;;7.20;2.17;;;5.00;74.90;;;8.04;49.27;96865.53;5062594;28;20348;-45
2023/04/14 05:03:04;;;;;;;6.23;1.93;;;4.90;75.00;;;8.01;48.95;96865.88;5062011;28;20036;-45
2023/04/14 05:05:36;;;;;;;5.87;2.23;;;4.90;74.90;;;8.02;49.12;96874.66;5062543;28;20607;-44
2023/04/14 05:08:03;;;;;;;3.60;1.80;;;4.90;75.40;;;8.06;49.08;96876.84;5060950;28;20052;-43
2023/04/14 05:10:35;;;;;;;3.13;1.50;;;4.90;74.80;;;7.97;48.93;96876.97;5061969;28;20040;-44
2023/04/14 05:13:03;;;;;;;5.23;1.80;;;4.90;74.80;;;7.95;48.91;96874.50;5063679;28;20044;-44
2023/04/14 05:15:30;;;;;;;7.07;3.33;;;4.80;74.70;;;7.92;49.12;96876.63;5062586;28;20508;-45
2023/04/14 05:17:58;;;;;;;4.33;2.40;;;4.90;74.80;;;7.85;49.02;96879.94;5060658;28;20045;-43
2023/04/14 05:20:25;;;;;;;7.30;1.50;;;4.80;74.90;;;7.87;49.36;96888.56;5059816;28;20041;-43
2023/04/14 05:22:53;;;;;;;3.57;1.50;;;4.80;75.00;;;7.81;49.17;96885.72;5063887;28;20036;-45
2023/04/14 05:25:21;;;;;;;5.37;2.30;;;4.90;74.80;;;7.91;49.58;96888.22;5063406;28;20409;-44
2023/04/14 05:27:48;;;;;;;3.00;1.60;;;4.90;74.30;;;7.89;49.19;96886.56;5063734;28;20044;-43
2023/04/14 05:30:15;;;;;;;4.93;1.63;;;4.90;74.10;;;8.02;49.37;96882.59;5063764;28;20055;-44
2023/04/14 05:32:43;;;;;;;4.13;1.83;;;5.00;74.00;;;8.00;49.08;96885.41;5061015;28;20048;-45
2023/04/14 05:35:11;;;;;;;3.47;1.67;;;5.10;73.70;;;8.02;49.04;96885.25;5057646;28;20040;-44
2023/04/14 05:37:38;;;;;;;6.73;1.73;;;5.20;73.30;;;8.05;48.87;96890.25;5062164;28;20044;-43
2023/04/14 05:40:06;;;;;;;3.63;1.60;;;5.20;72.60;;;7.96;49.06;96885.91;5063419;28;20043;-43
2023/04/14 05:42:34;;;;;;;2.77;1.60;;;5.30;72.20;;;8.15;49.29;96892.75;5060883;28;20045;-43
2023/04/14 05:45:03;;;;;;;8.33;2.53;;;5.30;72.20;;;8.09;48.83;96887.09;5062821;28;20055;-45
2023/04/14 05:47:30;;;;;;;6.47;1.80;;;5.40;71.90;;;8.24;48.64;96897.06;5062518;28;20429;-44
2023/04/14 05:49:58;;;;;;;7.50;1.90;;;5.50;72.00;;;8.04;49.40;96915.09;5059672;28;20052;-43
2023/04/14 05:52:26;;;;;;;5.63;1.73;;;5.50;71.50;;;8.18;49.21;96910.97;5062566;28;20052;-45
2023/04/14 05:54:53;;;;;;;4.87;1.50;;;5.50;71.60;;;8.36;49.10;96913.47;5059301;28;20044;-44
2023/04/14 05:57:21;;;;;;;4.17;1.57;;;5.60;71.50;;;8.46;48.51;96915.00;5059726;28;20045;-43
2023/04/14 05:59:49;;;;;;;6.90;2.20;;;5.70;71.00;;;8.54;48.60;96922.13;5045071;28;20052;-44
2023/04/14 06:02:16;;;;;;;3.17;1.70;;;5.80;71.10;;;8.65;48.63;96915.66;5063099;28;20041;-44
2023/04/14 06:04:45;;;;;;;5.50;1.90;;;5.90;71.00;;;8.77;48.25;96910.84;5059452;28;20048;-43
2023/04/14 06:07:12;;;;;;;5.77;1.80;;;5.90;71.10;;;8.72;48.71;96924.59;5059461;28;20041;-43
2023/04/14 06:09:41;;;;;;;4.30;1.33;;;6.00;71.20;;;8.81;48.50;96918.28;5061437;28;20045;-43
2023/04/14 06:12:09;;;;;;;3.83;1.67;;;6.10;70.70;;;8.93;48.37;96920.59;5062618;28;20040;-43
2023/04/14 06:14:36;;;;;;;4.67;2.07;;;6.20;70.80;;;9.04;48.38;96920.25;5061046;28;20045;-43
2023/04/14 06:17:04;;;;;;;2.83;1.30;;;6.20;70.70;;;9.09;48.19;96925.03;5058191;28;20506;-45
2023/04/14 06:19:31;;;;;;;6.57;1.73;;;6.20;70.70;;;9.10;48.48;96922.22;5060195;28;20041;-45
2023/04/14 06:21:59;;;;;;;3.53;1.60;;;6.30;71.00;;;9.14;48.91;96922.72;5062521;28;20531;-43
2023/04/14 06:24:26;;;;;;;6.67;2.20;;;6.40;71.30;;;9.25;48.40;96915.22;5062177;28;20029;-45
2023/04/14 06:26:55;;;;;;;3.73;1.20;;;6.40;71.10;;;9.08;48.41;96918.91;5059406;28;20421;-45
2023/04/14 06:29:22;;;;;;;2.33;1.40;;;6.40;70.10;;;9.32;48.25;96915.34;5056368;28;20049;-44
2023/04/14 06:31:50;;;;;;;4.20;1.40;;;6.50;71.30;;;9.28;48.54;96908.72;5061479;28;20032;-44
2023/04/14 06:34:18;;;;;;;3.93;1.87;;;6.50;70.80;;;9.41;48.17;96924.13;5060673;28;20040;-43
2023/04/14 06:36:45;;;;;;;5.20;1.70;;;6.60;70.10;;;9.37;48.17;96926.31;5060261;28;20432;-42
2023/04/14 06:39:13;;;;;;;4.80;1.83;;;6.70;69.20;;;9.39;48.08;96919.00;5058041;28;20040;-44
2023/04/14 06:41:40;;;;;;;6.10;1.60;;;6.70;69.40;;;9.36;48.21;96921.97;5060496;28;20041;-45
2023/04/14 06:44:12;;;;;;;6.33;1.97;;;6.80;68.90;;;9.38;48.32;96914.69;5060729;28;20049;-42
2023/04/14 06:46:39;;;;;;;4.07;1.87;;;6.80;69.20;;;9.30;48.30;96917.34;5060717;28;20056;-45
2023/04/14 06:49:07;;;;;;;3.47;1.70;;;6.80;68.90;;;9.51;47.92;96919.44;5059048;28;20045;-44
2023/04/14 06:51:34;;;;;;;4.27;1.43;;;6.90;69.30;;;9.51;48.08;96921.28;5058691;28;20049;-43
2023/04/14 06:54:02;;;;;;;5.93;1.40;;;6.90;68.30;;;9.40;48.32;96925.13;5061950;28;20040;-43
2023/04/14 06:56:30;;;;;;;7.07;2.03;;;6.90;68.80;;;9.69;48.02;96927.16;5061954;28;20142;-43
2023/04/14 06:59:01;;;;;;;9.07;1.67;;;7.00;69.10;;;9.63;48.06;96912.75;5058997;28;20060;-43
2023/04/14 07:01:28;;;;;;;4.27;2.00;;;7.10;69.10;;;9.68;48.06;96912.22;5058626;28;20395;-43
2023/04/14 07:03:56;;;;;;;5.30;1.97;;;7.10;68.30;;;9.59;47.88;96908.78;5062062;28;20348;-43
2023/04/14 07:06:25;;;;;;;3.10;1.70;;;7.10;67.80;;;9.52;48.06;96915.78;5062546;28;20107;-43
2023/04/14 07:08:54;;;;;;;6.20;1.97;;;7.10;67.80;;;9.62;47.93;96912.94;5059176;28;20055;-44
2023/04/14 07:11:22;;;;;;;3.90;1.67;;;7.10;67.70;;;9.76;47.89;96906.06;5058910;28;20041;-42
2023/04/14 07:13:49;;;;;;;3.83;1.47;;;7.20;68.00;;;9.77;47.58;96902.38;5061522;28;20044;-42
2023/04/14 07:16:17;;;;;;;5.80;1.50;;;7.30;67.50;;;9.81;47.93;96901.06;5062342;28;20047;-43
2023/04/14 07:18:44;;;;;;;2.57;1.70;;;7.30;68.00;;;9.81;48.03;96896.56;5058754;28;20505;-43
2023/04/14 07:21:12;;;;;;;4.90;2.00;;;7.40;67.60;;;10.05;47.30;96905.38;5057503;28;20383;-43
2023/04/14 07:23:39;;;;;;;5.37;1.60;;;7.50;67.50;;;9.93;48.09;96896.97;5059926;28;20056;-44
2023/04/14 07:26:07;;;;;;;3.60;1.40;;;7.50;67.70;;;10.15;47.81;96902.50;5064931;28;20047;-45
2023/04/14 07:28:34;;;;;;;4.53;1.50;;;7.60;67.70;;;10.26;47.50;96891.44;5065446;28;20059;-43
2023/04/14 07:31:09;;;;;;;14.20;2.00;;;7.70;68.10;;;10.27;47.33;96895.75;5062675;28;20418;-42
2023/04/14 07:33:36;;;;;;;4.17;1.97;;;7.80;67.30;;;10.23;47.45;96889.13;5045494;28;20482;-43
2023/04/14 07:36:04;;;;;;;3.23;1.33;;;7.80;66.40;;;10.33;47.00;96881.78;5065248;28;20048;-46
2023/04/14 07:38:32;;;;;;;6.80;2.13;;;7.80;66.80;;;10.29;47.36;96885.75;5065825;28;20516;-44
2023/04/14 07:41:04;;;;;;;4.87;1.90;;;7.80;66.80;;;10.29;47.32;96888.41;5061087;28;20044;-43
2023/04/14 07:43:35;;;;;;;3.03;1.73;;;7.90;66.60;;;10.39;46.92;96882.88;5061236;28;20051;-45
2023/04/14 07:46:05;;;;;;;7.80;2.20;;;7.90;65.90;;;10.48;47.42;96884.47;5065680;28;20052;-44
2023/04/14 07:48:37;;;;;;;9.27;2.83;;;7.90;67.40;;;10.41;46.86;96886.19;5065065;28;20040;-44
2023/04/14 07:51:05;;;;;;;7.07;1.80;;;7.90;65.80;;;10.47;47.03;96877.53;5062301;28;20482;-44
2023/04/14 07:53:33;;;;;;;4.03;1.50;;;8.00;66.30;;;10.44;46.89;96878.69;5062351;28;20395;-44
2023/04/14 07:56:01;;;;;;;2.80;1.50;;;8.00;65.50;;;10.59;46.72;96881.41;5065985;28;20409;-45
2023/04/14 07:58:28;;;;;;;3.87;1.60;;;8.10;65.60;;;10.55;46.93;96877.44;5066099;28;20051;-45
2023/04/14 08:00:57;;;;;;;2.77;1.43;;;8.00;66.40;;;10.69;47.08;96880.31;5062512;28;20048;-44
2023/04/14 08:03:24;;;;;;;3.97;1.67;;;8.10;66.70;;;10.67;46.39;96887.66;5061869;28;20068;-44
2023/04/14 08:05:52;;;;;;;3.93;1.73;;;8.10;65.20;;;10.60;46.42;96880.41;5064027;28;20513;-43
2023/04/14 08:08:20;;;;;;;6.33;1.80;;;8.10;64.60;;;10.50;46.59;96876.31;5063767;28;20325;-44
2023/04/14 08:10:47;;;;;;;5.30;2.00;;;8.20;64.70;;;10.48;46.34;96879.16;5062667;28;20055;-43
2023/04/14 08:13:15;;;;;;;9.20;2.27;;;8.10;64.50;;;10.61;46.60;96884.69;5061920;28;20514;-44
2023/04/14 08:15:42;;;;;;;4.13;1.80;;;8.20;65.00;;;10.67;46.23;96887.66;5062748;28;20045;-44
2023/04/14 08:18:10;;;;;;;2.60;1.40;;;8.30;64.30;;;10.64;46.09;96895.00;5065063;28;20084;-44
2023/04/14 08:20:37;;;;;;;7.40;2.13;;;8.30;63.80;;;10.44;46.03;96897.31;5064479;28;20504;-44
2023/04/14 08:23:05;;;;;;;5.10;1.23;;;8.30;62.80;;;10.66;46.02;96894.81;5061581;28;20033;-45
2023/04/14 08:25:32;;;;;;;7.20;1.80;;;8.40;62.60;;;10.64;45.29;96888.84;5061393;28;20052;-44
2023/04/14 08:28:00;;;;;;;3.93;1.60;;;8.40;61.60;;;10.73;45.18;96894.91;5053941;28;20486;-44
2023/04/14 08:30:28;;;;;;;4.00;1.47;;;8.40;61.30;;;10.76;45.81;96898.06;5061671;28;20037;-44
2023/04/14 08:32:55;;;;;;;5.77;1.50;;;8.50;62.60;;;10.84;45.59;96897.16;5064414;28;20045;-45
2023/04/14 08:35:25;;;;;;;5.80;2.47;;;8.50;62.30;;;11.02;45.37;96891.47;5063833;28;20040;-44
2023/04/14 08:38:07;;;;;;;4.47;1.83;;;8.60;63.00;;;11.21;45.47;96896.25;5054321;28;20040;-44
2023/04/14 08:40:46;;;;;;;4.87;1.83;;;8.70;63.60;;;11.33;45.63;96890.47;5061279;28;20044;-43
2023/04/14 08:43:14;;;;;;;8.33;1.50;;;8.70;63.80;;;11.39;44.93;96890.56;5063496;28;20063;-45
2023/04/14 08:45:42;;;;;;;5.10;1.63;;;8.80;62.40;;;11.37;44.96;96891.75;5062335;28;20040;-44
2023/04/14 08:48:13;;;;;;;4.37;1.80;;;8.70;62.60;;;11.38;45.04;96899.59;5060118;28;20494;-45
2023/04/14 08:51:01;;;;;;;3.80;1.87;;;8.80;62.80;;;11.27;43.61;96897.38;5061870;28;20037;-45
2023/04/14 08:53:30;;;;;;;8.90;1.60;;;8.80;60.40;;;11.16;43.74;96895.97;5063434;28;20055;-44
2023/04/14 08:56:03;;;;;;;3.57;1.47;;;8.80;58.50;;;11.10;44.53;96895.91;5061304;28;20049;-44
2023/04/14 08:58:31;;;;;;;5.50;2.00;;;8.80;60.00;;;11.20;43.25;96899.94;5061205;28;20048;-44
2023/04/14 09:00:59;;;;;;;5.30;1.87;;;8.90;56.80;;;11.28;42.93;96887.53;5063933;28;20037;-45
2023/04/14 09:03:26;;;;;;;7.20;1.90;;;8.90;57.20;;;11.48;42.95;96887.81;5062826;28;20051;-45
2023/04/14 09:05:55;;;;;;;3.07;1.87;;;9.00;57.30;;;11.50;43.24;96891.94;5043036;28;20056;-45
2023/04/14 09:08:23;;;;;;;4.20;1.37;;;9.10;58.00;;;11.65;42.91;96899.94;5060551;28;20494;-45
2023/04/14 09:10:50;;;;;;;3.67;1.67;;;9.10;57.00;;;11.67;42.80;96883.72;5062505;28;20051;-47
2023/04/14 09:13:21;;;;;;;7.90;1.90;;;9.20;57.50;;;11.81;42.04;96889.03;5064072;28;20064;-47
2023/04/14 09:15:49;;;;;;;3.83;1.60;;;9.20;56.40;;;11.85;42.22;96888.69;5061965;28;20048;-44
2023/04/14 09:18:17;;;;;;;6.83;1.80;;;9.30;56.30;;;11.89;42.12;96882.81;5060448;28;20041;-44
2023/04/14 09:20:48;;;;;;;5.30;1.50;;;9.30;56.90;;;11.81;41.08;96885.56;5061594;28;20052;-43
2023/04/14 09:23:40;;;;;;;7.47;2.20;;;9.30;53.90;;;11.69;41.38;96881.69;5062876;28;20055;-43
2023/04/14 09:26:09;;;;;;;4.80;1.80;;;9.20;55.70;;;11.83;41.72;96895.00;5052843;28;20398;-42
2023/04/14 09:28:37;;;;;;;5.77;1.50;;;9.30;56.70;;;11.82;41.71;96888.03;5060406;28;20045;-44
2023/04/14 09:31:04;;;;;;;6.87;2.33;;;9.30;55.60;;;12.05;41.88;96896.91;5048588;28;20037;-43
2023/04/14 09:33:37;;;;;;;4.30;1.47;;;9.40;56.50;;;11.96;40.25;96901.53;5054819;28;20033;-43
2023/04/14 09:36:05;;;;;;;7.40;2.20;;;9.50;53.00;;;11.93;40.18;96897.41;5052164;28;20033;-43
2023/04/14 09:38:38;;;;;;;4.30;1.80;;;9.40;52.50;;;12.04;40.04;96890.78;5060488;28;20040;-44
2023/04/14 09:41:06;;;;;;;4.77;1.83;;;9.40;53.70;;;12.08;40.38;96886.72;5052329;28;20047;-43
2023/04/14 09:43:35;;;;;;;4.47;1.60;;;9.50;54.20;;;12.17;40.88;96890.06;5059730;28;20044;-43
2023/04/14 09:46:09;;;;;;;2.87;1.53;;;9.60;56.20;;;12.13;40.37;96894.94;5063161;28;20501;-43
2023/04/14 09:48:54;;;;;;;5.03;1.70;;;9.60;52.20;;;12.03;38.71;96886.44;5062370;28;20422;-44
2023/04/14 09:51:27;;;;;;;3.93;1.73;;;9.60;50.80;;;12.16;40.15;96881.25;5054427;28;20052;-45
2023/04/14 09:54:03;;;;;;;4.57;1.70;;;9.70;53.30;;;12.20;39.68;96887.84;5060242;28;20044;-45
2023/04/14 09:56:31;;;;;;;4.47;2.10;;;9.70;53.20;;;12.36;39.58;96889.44;5062298;28;20041;-46
2023/04/14 09:59:00;;;;;;;7.00;2.00;;;9.70;53.90;;;12.45;39.67;96886.66;5060468;28;20067;-45
2023/04/14 10:01:32;;;;;;;5.53;2.27;;;9.80;53.50;;;12.50;39.70;96884.22;5059612;28;20052;-43
2023/04/14 10:04:01;;;;;;;2.97;1.40;;;9.80;53.50;;;12.43;38.73;96892.19;5060302;28;20413;-44
2023/04/14 10:06:30;;;;;;;4.40;1.93;;;9.80;51.00;;;12.57;39.23;96883.25;5061865;28;20116;-46
2023/04/14 10:09:00;;;;;;;4.93;1.60;;;9.90;53.40;;;12.73;39.83;96882.16;5060441;28;20040;-43
2023/04/14 10:11:31;;;;;;;10.97;2.63;;;9.90;54.30;;;12.87;39.99;96874.25;5059320;28;20037;-47
2023/04/14 10:14:05;;;;;;;3.97;2.07;;;10.00;55.10;;;12.96;39.36;96867.75;5061778;28;20506;-43
2023/04/14 10:16:33;;;;;;;3.53;1.50;;;10.20;53.60;;;13.02;39.81;96855.44;5063077;28;20433;-45
2023/04/14 10:19:01;;;;;;;5.47;2.60;;;10.30;54.30;;;13.07;39.33;96867.19;5059774;28;20041;-44
2023/04/14 10:21:31;;;;;;;4.37;1.70;;;10.40;53.10;;;13.18;39.91;96858.66;5059279;28;20063;-45
2023/04/14 10:24:00;;;;;;;5.20;1.37;;;10.50;53.80;;;13.28;39.12;96860.09;5059796;28;20056;-44
2023/04/14 10:26:28;;;;;;;5.87;2.70;;;10.50;52.10;;;13.11;38.22;96849.75;5062800;28;20040;-44
2023/04/14 10:28:56;;;;;;;5.17;1.80;;;10.40;51.30;;;13.17;38.51;96848.16;5060450;28;20040;-42
2023/04/14 10:31:41;;;;;;;5.17;2.10;;;10.40;51.50;;;13.17;38.68;96851.63;5066305;28;20041;-43
2023/04/14 10:34:14;;;;;;;4.53;1.67;;;10.50;51.80;;;13.28;38.86;96847.59;5050091;28;20048;-44
2023/04/14 10:36:43;;;;;;;5.25;1.60;;;10.50;51.90;;;13.30;38.82;96847.41;5059073;28;20510;-43
2023/04/14 10:39:11;;;;;;;3.60;1.87;;;10.50;52.40;;;13.35;38.62;96844.97;5062759;28;20037;-45
2023/04/14 10:41:47;;;;;;;4.33;1.80;;;10.70;52.20;;;13.39;38.62;96839.03;5061277;28;20056;-45
2023/04/14 10:44:31;;;;;;;5.47;2.00;;;10.70;51.20;;;13.47;38.35;96837.22;5051772;28;20514;-44